Latest Weather Observations for Warwick

IDQ60801

Issued at 4:12 pm EST Saturday 5 December 2020 (issued every 10 minutes, with the page automatically refreshed every 10 minutes)

About weather observations | Map of weather stations | Latest weather observations for QLD | Other Formats
Station Details ID: 041525 Name: WARWICK Lat: -28.21 Lon: 152.10 Height: 475.4 m
Data from the previous 72 hours. | See also: Recent months at Warwick
Date/Time
EST
Temp
°C
App
Temp
°C
Dew
Point
°C
Rel
Hum
%
Delta-T
°C
Wind Press
QNH
hPa
Press
MSL
hPa
Rain since
9am
mm
Dir  Spd
km/h
Gust
km/h
Spd
kts
Gust
kts
05/04:00pm 34.9 30.9 13.1 27 13.5 NNE 26 35 14 19 1009.2 1006.7 0.0
05/03:30pm 35.2 32.8 13.9 27 13.3 NNE 19 26 10 14 1009.0 1006.5 0.0
05/03:00pm 34.8 31.8 13.6 28 13.2 N 22 30 12 16 1009.5 1007.0 0.0
05/02:30pm 34.7 31.0 15.1 31 12.4 N 28 39 15 21 1010.0 1007.5 0.0
05/02:00pm 35.2 31.9 15.0 30 12.8 N 26 37 14 20 1010.2 1007.7 0.0
05/01:30pm 35.2 32.8 14.5 29 13.0 N 20 33 11 18 1010.7 1008.2 0.0
05/01:00pm 35.3 33.7 15.1 30 12.8 NNW 17 32 9 17 1011.2 1008.7 0.0
05/12:30pm 34.6 33.6 15.5 32 12.2 NW 15 30 8 16 1011.8 1009.3 0.0
05/12:00pm 34.7 34.2 17.0 35 11.5 NW 15 30 8 16 1012.4 1009.9 0.0
05/11:30am 34.2 33.8 16.1 34 11.6 NW 13 22 7 12 1012.5 1010.1 0.0
05/11:00am 33.8 33.6 16.6 35 11.1 NNW 13 22 7 12 1013.2 1010.7 0.0
05/10:30am 32.7 32.0 16.5 37 10.4 NNW 15 22 8 12 1013.7 1011.2 0.0
05/10:00am 32.5 33.9 18.7 44 9.1 WNW 9 28 5 15 1013.8 1011.3 0.0
05/09:30am 30.9 32.9 19.9 52 7.4 NNW 9 20 5 11 1014.2 1011.7 0.0
05/09:00am 29.4 32.8 19.4 55 6.6 CALM 0 7 0 4 1014.7 1012.3 0.2
05/08:30am 27.8 30.4 18.5 57 6.1 ESE 2 9 1 5 1015.1 1012.6 0.2
05/08:00am 26.4 29.2 18.8 63 4.9 NNE 2 6 1 3 1015.3 1012.8 0.2
05/07:30am 25.2 28.1 19.1 69 4.0 SSW 2 7 1 4 1015.3 1012.8 0.2
05/07:00am 23.6 26.4 18.9 75 3.0 NNE 2 6 1 3 1015.3 1012.8 0.2
05/06:30am 22.8 25.7 18.3 76 2.9 CALM 0 0 0 0 1015.2 1012.7 0.2
05/06:00am 22.6 25.9 19.0 80 2.3 CALM 0 0 0 0 1014.7 1012.3 0.2
05/05:30am 21.5 25.3 20.1 92 0.9 CALM 0 0 0 0 1014.2 1011.7 0.2
05/05:00am 21.0 25.2 21.0 100 0.0 CALM 0 0 0 0 1013.8 1011.3 0.2
05/04:30am 20.9 25.1 20.9 100 0.0 CALM 0 0 0 0 1013.4 1010.9 0.2
05/04:00am 21.1 25.2 20.8 98 0.2 CALM 0 0 0 0 1013.2 1010.7 0.2
05/03:30am 21.2 25.3 20.7 97 0.3 CALM 0 0 0 0 1013.2 1010.7 0.2
05/03:00am 21.3 25.6 21.1 99 0.1 CALM 0 0 0 0 1013.1 1010.6 0.2
05/02:30am 21.3 25.5 21.0 98 0.2 CALM 0 0 0 0 1012.9 1010.4 0.2
05/02:00am 21.8 26.0 21.0 95 0.5 CALM 0 0 0 0 1013.1 1010.6 0.2
05/01:30am 22.1 26.2 20.7 92 0.9 CALM 0 4 0 2 1013.1 1010.6 0.2
05/01:00am 22.0 25.5 20.3 90 1.1 S 2 7 1 4 1013.4 1010.9 0.2
05/12:30am 22.6 25.2 20.5 88 1.4 NNE 7 9 4 5 1013.5 1011.0 0.2
05/12:00am 23.3 26.8 20.4 84 1.9 NNE 2 9 1 5 1013.7 1011.2 0.2
 
Date/Time
EST
Temp
°C
App
Temp
°C
Dew
Point
°C
Rel
Hum
%
Delta-T
°C
Wind Press
QNH
hPa
Press
MSL
hPa
Rain since
9am
mm
Dir  Spd
km/h
Gust
km/h
Spd
kts
Gust
kts
04/11:30pm 23.1 25.2 20.1 83 2.0 ENE 9 13 5 7 1013.8 1011.3 0.2
04/11:00pm 23.1 27.0 20.4 85 1.8 CALM 0 6 0 3 1014.0 1011.5 0.2
04/10:30pm 24.2 28.1 20.3 79 2.6 CALM 0 0 0 0 1013.8 1011.3 0.2
04/10:00pm 24.8 28.1 19.2 71 3.7 CALM 0 0 0 0 1014.1 1011.6 0.2
04/09:30pm 25.6 28.9 19.0 67 4.3 CALM 0 6 0 3 1014.4 1012.0 0.2
04/09:00pm 26.6 28.1 19.0 63 5.0 SSE 9 15 5 8 1014.4 1012.0 0.2
04/08:30pm 26.6 29.9 19.0 63 5.0 CALM 0 0 0 0 1013.9 1011.4 0.2
04/08:00pm 27.2 30.4 18.8 60 5.5 CALM 0 0 0 0 1013.7 1011.2 0.2
04/07:30pm 28.5 29.9 17.7 52 7.0 W 7 11 4 6 1013.4 1010.9 0.2
04/07:00pm 29.3 30.9 17.8 50 7.5 W 6 9 3 5 1013.0 1010.5 0.2
04/06:30pm 30.1 31.2 17.9 48 7.9 WNW 9 11 5 6 1012.4 1009.9 0.2
04/06:00pm 30.8 31.7 17.5 45 8.6 WSW 9 13 5 7 1012.3 1009.8 0.2
04/05:30pm 33.3 32.4 15.8 35 11.2 SW 15 20 8 11 1012.2 1009.7 0.2
04/05:00pm 33.9 33.5 16.3 35 11.3 SW 13 20 7 11 1011.9 1009.4 0.2
04/04:30pm 33.8 33.8 16.2 35 11.3 SW 11 20 6 11 1011.9 1009.4 0.2
04/04:00pm 34.2 33.6 15.6 32 11.9 WSW 13 24 7 13 1012.0 1009.5 0.2
04/03:30pm 33.7 32.9 15.2 33 11.7 W 13 26 7 14 1012.3 1009.8 0.2
04/03:00pm 33.8 33.8 15.3 33 11.7 WSW 9 17 5 9 1012.8 1010.3 0.2
04/02:30pm 33.2 33.5 17.8 40 10.1 WNW 13 20 7 11 1013.3 1010.8 0.2
04/02:00pm 32.8 34.3 19.7 46 8.8 WSW 11 22 6 12 1013.8 1011.3 0.2
04/01:30pm 31.3 33.0 19.3 49 8.0 W 9 17 5 9 1014.2 1011.7 0.2
04/01:00pm 30.5 31.5 19.5 51 7.3 W 13 28 7 15 1014.8 1012.4 0.2
04/12:30pm 29.8 31.1 19.2 53 7.0 WSW 11 20 6 11 1015.3 1012.8 0.2
04/12:00pm 28.9 30.4 19.8 58 6.1 W 11 19 6 10 1015.8 1013.3 0.2
04/11:30am 28.2 30.1 19.7 60 5.6 WNW 9 17 5 9 1016.6 1014.2 0.2
04/11:00am 27.1 29.5 20.0 65 4.7 NNW 7 15 4 8 1016.8 1014.4 0.2
04/10:30am 25.6 27.8 20.4 73 3.5 W 9 15 5 8 1017.5 1015.0 0.0
04/10:00am 25.3 27.2 20.5 75 3.2 W 11 17 6 9 1017.8 1015.3 0.0
04/09:30am 23.8 25.8 20.7 83 2.1 W 11 15 6 8 1017.7 1015.2 0.0
04/09:00am 23.0 24.2 21.5 91 1.0 NNW 17 24 9 13 1017.8 1015.3 6.8
04/08:30am 22.2 21.7 20.8 92 0.9 NNW 24 33 13 18 1018.1 1015.6 6.8
04/08:00am 22.2 25.5 21.4 95 0.5 S 6 17 3 9 1018.6 1016.2 6.8
04/07:30am 20.9 24.9 20.6 98 0.2 CALM 0 0 0 0 1019.1 1016.7 6.8
04/07:00am 20.4 23.0 20.4 100 0.0 WNW 7 9 4 5 1019.7 1017.2 6.8
04/06:30am 20.0 22.4 20.0 100 0.0 NNE 7 9 4 5 1019.6 1017.1 6.8
04/06:00am 19.7 23.3 19.7 100 0.0 CALM 0 2 0 1 1019.2 1016.8 6.8
04/05:30am 19.5 21.8 19.5 100 0.0 NE 6 9 3 5 1019.5 1017.0 6.8
04/05:00am 19.1 22.4 19.1 100 0.0 CALM 0 7 0 4 1019.6 1017.1 6.8
04/04:30am 19.0 21.9 19.0 100 0.0 SW 2 9 1 5 1019.3 1016.9 6.8
04/04:00am 18.8 21.2 18.8 100 0.0 ENE 4 13 2 7 1018.6 1016.2 6.8
04/03:30am 18.4 17.8 18.4 100 0.0 E 19 32 10 17 1018.3 1015.9 6.8
04/03:14am 18.6 17.1 18.6 100 0.0 E 24 39 13 21 1018.0 1015.5 6.4
04/03:00am 18.3 18.4 18.3 100 0.0 ENE 15 24 8 13 1020.1 1017.7 5.8
04/02:30am 18.2 18.2 18.2 100 0.0 SSE 15 24 8 13 1021.3 1018.9 3.8
04/02:25am 18.1 17.2 18.1 100 0.0 S 20 48 11 26 1021.3 1018.9 3.4
04/02:15am 19.0 17.3 19.0 100 0.0 SSW 26 69 14 37 1021.0 1018.6 2.0
04/02:00am 21.4 23.7 21.4 100 0.0 SSW 11 17 6 9 1021.0 1018.6 0.6
04/01:30am 21.7 25.1 21.7 100 0.0 SSW 6 13 3 7 1020.7 1018.3 0.0
04/01:00am 22.2 25.9 22.2 100 0.0 SSW 6 13 3 7 1020.8 1018.4 0.0
04/12:30am 22.4 26.2 22.4 100 0.0 ESE 6 11 3 6 1020.4 1018.0 0.0
04/12:00am 22.3 25.5 22.3 100 0.0 ESE 9 15 5 8 1020.6 1018.2 0.0
 
Date/Time
EST
Temp
°C
App
Temp
°C
Dew
Point
°C
Rel
Hum
%
Delta-T
°C
Wind Press
QNH
hPa
Press
MSL
hPa
Rain since
9am
mm
Dir  Spd
km/h
Gust
km/h
Spd
kts
Gust
kts
03/11:30pm 21.4 24.1 21.4 100 0.0 ENE 9 15 5 8 1020.2 1017.8 0.0
03/11:00pm 21.4 24.7 21.4 100 0.0 E 6 9 3 5 1019.8 1017.3 0.0
03/10:30pm 21.6 25.0 21.6 100 0.0 S 6 11 3 6 1020.5 1018.1 0.0
03/10:00pm 22.6 26.5 21.1 91 1.0 ESE 2 9 1 5 1020.0 1017.5 0.0
03/09:30pm 22.6 26.7 20.7 89 1.3 CALM 0 0 0 0 1019.7 1017.2 0.0
03/09:00pm 22.8 26.5 20.7 88 1.4 ENE 2 7 1 4 1019.6 1017.1 0.0
03/08:30pm 23.6 27.5 20.3 82 2.2 CALM 0 7 0 4 1020.0 1017.5 0.0
03/08:00pm 24.3 26.1 20.4 79 2.6 E 11 17 6 9 1019.5 1017.0 0.0
03/07:30pm 24.7 27.2 20.2 76 3.0 E 7 13 4 7 1019.5 1017.0 0.0
03/07:00pm 25.4 25.8 19.8 71 3.7 E 17 24 9 13 1019.2 1016.8 0.0
03/06:30pm 26.0 26.8 19.9 69 4.0 E 15 24 8 13 1018.9 1016.5 0.0
03/06:00pm 26.6 29.1 20.2 68 4.3 SE 7 13 4 7 1018.1 1015.6 0.0
03/05:30pm 26.7 28.2 20.5 69 4.1 SSE 13 22 7 12 1017.9 1015.4 0.0
03/05:00pm 27.8 28.9 20.4 64 4.9 SSE 15 20 8 11 1017.6 1015.1 0.0
03/04:30pm 27.7 28.7 20.3 64 4.9 SSE 15 22 8 12 1017.8 1015.3 0.0
03/04:00pm 28.4 30.2 20.4 62 5.4 SE 11 24 6 13 1017.9 1015.4 0.0
03/03:30pm 28.4 30.5 19.3 57 6.0 E 7 15 4 8 1017.9 1015.4 0.0
03/03:00pm 27.6 26.8 18.0 55 6.2 NE 19 28 10 15 1018.2 1015.8 0.0
03/02:30pm 28.6 29.0 19.8 59 5.9 NE 17 22 9 12 1018.7 1016.3 0.0
03/02:00pm 28.1 29.2 20.4 63 5.1 NE 15 20 8 11 1018.8 1016.4 0.0
03/01:30pm 27.2 29.6 20.0 64 4.8 NE 7 15 4 8 1019.0 1016.6 0.0
03/01:00pm 28.1 30.2 20.9 65 4.8 ENE 11 19 6 10 1019.2 1016.8 0.0
03/12:30pm 26.2 27.6 21.0 73 3.5 SSE 15 22 8 12 1019.6 1017.1 0.0
03/12:00pm 25.9 27.6 20.9 74 3.3 SSE 13 20 7 11 1019.9 1017.4 0.0
03/11:30am 25.7 27.4 20.9 75 3.2 SE 13 20 7 11 1020.0 1017.5 0.0
03/11:00am 25.5 27.8 20.7 75 3.2 SSE 9 17 5 9 1020.3 1017.9 0.0
03/10:30am 25.2 27.2 21.5 80 2.5 SE 13 19 7 10 1020.4 1018.0 0.0
03/10:00am 23.9 25.2 20.8 83 2.1 SSE 15 24 8 13 1020.6 1018.2 0.0
03/09:30am 23.4 24.0 20.3 83 2.0 SE 17 26 9 14 1020.6 1018.2 0.0
03/09:00am 22.7 23.8 21.2 91 1.0 SE 17 22 9 12 1020.9 1018.5 22.4
03/08:30am 22.5 23.9 21.0 91 1.0 SE 15 24 8 13 1020.8 1018.4 22.4
03/08:00am 22.1 22.7 21.1 94 0.7 SE 19 26 10 14 1020.9 1018.5 22.4
03/07:30am 21.7 23.8 21.7 100 0.0 SE 13 24 7 13 1020.7 1018.3 22.4
03/07:00am 21.0 22.0 21.0 100 0.0 SE 17 28 9 15 1021.0 1018.6 22.4
03/06:30am 20.7 21.5 20.7 100 0.0 SE 17 28 9 15 1020.9 1018.5 22.4
03/06:00am 20.6 21.4 20.6 100 0.0 SE 17 22 9 12 1020.6 1018.2 22.4
03/05:30am 20.4 21.5 20.4 100 0.0 SE 15 22 8 12 1020.1 1017.7 22.4
03/05:00am 20.5 21.2 20.5 100 0.0 SSE 17 28 9 15 1019.7 1017.2 22.4
03/04:30am 21.5 22.7 21.5 100 0.0 SE 17 32 9 17 1019.3 1016.9 22.4
03/04:00am 21.7 23.8 21.7 100 0.0 SSE 13 20 7 11 1018.8 1016.4 22.4
03/03:30am 21.5 23.9 21.5 100 0.0 SE 11 20 6 11 1018.9 1016.5 22.4
03/03:00am 21.4 25.8 21.4 100 0.0 CALM 0 6 0 3 1018.9 1016.5 22.4
03/02:30am 21.8 23.6 21.8 100 0.0 SSE 15 22 8 12 1018.3 1015.9 22.4
03/02:00am 22.0 24.1 21.7 98 0.2 SSE 13 24 7 13 1018.5 1016.1 22.4
03/01:51am 22.9 20.8 20.6 87 1.5 NNE 32 50 17 27 1017.9 1015.4 22.4
03/01:30am 22.6 21.9 21.8 95 0.5 NNE 28 35 15 19 1018.4 1016.0 22.4
03/01:00am 22.1 20.8 22.1 100 0.0 NE 32 39 17 21 1019.5 1017.0 22.4
03/12:57am 21.9 21.3 21.9 100 0.0 NE 28 39 15 21 1019.7 1017.2 22.4
03/12:30am 21.8 24.3 21.8 100 0.0 E 11 20 6 11 1021.4 1019.0 21.4
03/12:00am 21.9 24.9 21.9 100 0.0 ESE 9 17 5 9 1022.3 1019.9 19.6
 
Date/Time
EST
Temp
°C
App
Temp
°C
Dew
Point
°C
Rel
Hum
%
Delta-T
°C
Wind Press
QNH
hPa
Press
MSL
hPa
Rain since
9am
mm
Dir  Spd
km/h
Gust
km/h
Spd
kts
Gust
kts
02/11:30pm 22.3 24.3 22.3 100 0.0 SE 15 24 8 13 1022.4 1020.0 19.4
02/11:00pm 22.8 24.2 22.6 99 0.1 SSE 19 33 10 18 1021.3 1018.9 19.4
02/10:30pm 23.3 24.4 22.3 94 0.7 SSE 20 33 11 18 1021.8 1019.3 19.4
02/10:00pm 23.7 24.8 22.3 92 0.9 SE 20 33 11 18 1020.8 1018.4 19.4
02/09:30pm 23.9 26.7 23.0 95 0.6 ESE 13 20 7 11 1020.6 1018.2 19.4
02/09:00pm 23.6 24.2 22.8 95 0.5 SE 24 39 13 21 1020.9 1018.5 19.4
02/08:30pm 23.9 25.0 23.6 98 0.2 S 24 39 13 21 1019.6 1017.1 19.4
02/08:00pm 24.2 24.1 23.5 96 0.5 SE 30 44 16 24 1018.2 1015.8 19.4
02/07:44pm 25.4 25.5 23.3 88 1.5 SSE 28 50 15 27 1018.4 1016.0 19.4
02/07:30pm 25.6 27.9 23.5 88 1.5 S 17 26 9 14 1018.0 1015.5 19.4
02/07:00pm 25.2 28.4 21.3 79 2.6 SE 6 19 3 10 1017.0 1014.6 19.4
02/06:55pm 26.0 28.8 22.3 80 2.5 SSE 11 37 6 20 1016.4 1014.0 19.4
02/06:30pm 24.8 24.0 20.9 79 2.6 NE 26 35 14 19 1014.3 1011.8 19.4
02/06:00pm 23.7 23.6 20.0 80 2.4 NNE 20 24 11 13 1016.3 1013.9 19.4
02/05:30pm 24.5 27.1 20.4 78 2.7 WNW 7 11 4 6 1016.2 1013.7 19.4
02/05:00pm 24.5 25.4 21.6 84 2.0 S 19 33 10 18 1015.7 1013.2 19.0
02/04:30pm 25.8 26.2 21.7 78 2.8 S 22 37 12 20 1015.7 1013.2 19.0

Other formats

Comma delimited format used in spreadsheet applications
http://www.bom.gov.au/fwo/IDQ60801/IDQ60801.94555.axf

JavaScript Object Notation format (JSON) in row-major order
http://www.bom.gov.au/fwo/IDQ60801/IDQ60801.94555.json

Data quality

Most of these data are generated automatically and are frequently updated. Quality checks on data are not normally performed. It is possible for incorrect values to appear. Refer to information at About Latest Weather Observations and please check the disclaimer before using these data.